Charles J Cenac — WDC2762 — position and weather

sailwx.info

Track history (hours):
 
Tides and Currents Weather Stations Pressure Air Temp Water Temp Dewpoint Dewpoint Depression Visibility Wind Speed Wind Dir Waves Ship Positions

Charles J Cenac

Owner: BC Towing, Inc., Houma, LA. More information available from US FCC via Universal Licensing System and Coast Guard Vessel Documentation Center.

Last reported at 2017-Nov-23 13:04 UTC. Time now 2017-Nov-24 16:20 UTC.
Position N 29°55' W 093°20'.

Length 20 m; draft 8 m.

Type: Towing. MMSI: 366997390.

Date/timePositionNaut miles runAvg speedWind from/ knotsBaromVisibWave heightAir tempDewpointWater temp
2017-Nov-23 13:04N 29°55' W 093°20'0 4.1
2017-Nov-23 12:59N 29°55' W 093°20'2 4.0
2017-Nov-23 12:30N 29°57' W 093°20'2 3.9
2017-Nov-23 12:00N 29°59' W 093°20'2 3.6
2017-Nov-23 11:30N 30°01' W 093°20'2 3.6
2017-Nov-23 11:00N 30°03' W 093°20'2 3.9
2017-Nov-23 10:30N 30°05' W 093°20'1 1.8
2017-Nov-23 10:00N 30°04' W 093°20'1 2.1
2017-Nov-23 09:30N 30°04' W 093°21'1 3.0
2017-Nov-23 09:00N 30°04' W 093°23'2 4.0
2017-Nov-23 08:30N 30°04' W 093°25'2 4.0
2017-Nov-23 08:00N 30°04' W 093°28'2 3.9
2017-Nov-23 07:30N 30°04' W 093°30'2 3.9
2017-Nov-23 07:00N 30°04' W 093°32'2 3.9
2017-Nov-23 06:30N 30°04' W 093°34'2 3.8
2017-Nov-23 06:00N 30°03' W 093°37'2 4.0
2017-Nov-23 05:30N 30°04' W 093°39'2 4.2
2017-Nov-23 05:00N 30°04' W 093°41'  
2017-Nov-17 14:01N 29°49' W 092°02'0 6.2
2017-Nov-17 13:59N 29°49' W 092°02'3 5.9
2017-Nov-17 13:27N 29°48' W 092°06'3 6.1
2017-Nov-17 13:00N 29°47' W 092°09'3 5.8
2017-Nov-17 12:30N 29°47' W 092°12'1 2.0
2017-Nov-17 12:00N 29°47' W 092°13'1 1.1
2017-Nov-17 11:30N 29°48' W 092°14'1 1.8
2017-Nov-17 11:00N 29°48' W 092°15'3 5.0
2017-Nov-17 10:30N 29°49' W 092°17'2 4.7
2017-Nov-17 10:00N 29°50' W 092°19'4 5.1
2017-Nov-17 09:11N 29°53' W 092°23'41 5.3
2017-Nov-17 01:30N 29°57' W 093°10'3 5.7
2017-Nov-17 01:00N 29°59' W 093°12'3 5.4
2017-Nov-17 00:30N 30°01' W 093°14'3 5.1
2017-Nov-17 00:00N 30°03' W 093°16'3 5.5
2017-Nov-16 23:30N 30°05' W 093°18'1 2.8
2017-Nov-16 23:00N 30°06' W 093°18'1 2.4
2017-Nov-16 22:30N 30°06' W 093°17'1 2.6
2017-Nov-16 22:00N 30°05' W 093°18'0 0.7
2017-Nov-16 21:30N 30°05' W 093°17'1 2.9
2017-Nov-16 21:00N 30°04' W 093°16'3 6.7
2017-Nov-16 20:30N 30°01' W 093°14'4 7.7
2017-Nov-16 20:00N 29°58' W 093°11'43 7.7
2017-Nov-16 14:29N 29°52' W 092°23'4 7.6
2017-Nov-16 13:55N 29°50' W 092°18'3 7.8
2017-Nov-16 13:30N 29°48' W 092°15'3 5.4
2017-Nov-16 13:00N 29°47' W 092°12'0 0.0
2017-Nov-16 12:30N 29°47' W 092°12'0 0.0
2017-Nov-16 12:00N 29°47' W 092°12'1 1.9
2017-Nov-16 11:30N 29°47' W 092°11'4 7.0
2017-Nov-16 11:00N 29°47' W 092°07'4 7.3
2017-Nov-16 10:30N 29°49' W 092°04'6 7.8
2017-Nov-16 09:41N 29°51' W 091°56'1 5.8
2017-Nov-16 09:27N 29°51' W 091°55'7 0.4
2017-Nov-15 16:19N 29°49' W 092°02'3 8.4
2017-Nov-15 16:00N 29°48' W 092°05'4 8.4
2017-Nov-15 15:30N 29°47' W 092°10'1 2.7
2017-Nov-15 15:00N 29°47' W 092°11'1 2.0
2017-Nov-15 14:30N 29°47' W 092°12'1 2.0
2017-Nov-15 14:00N 29°48' W 092°13'0 0.0
2017-Nov-15 13:30N 29°48' W 092°13'0 0.0
2017-Nov-15 13:00N 29°48' W 092°13'0 0.0
2017-Nov-15 12:30N 29°48' W 092°13'3 6.0
2017-Nov-15 12:00N 29°49' W 092°16'4 8.1
2017-Nov-15 11:30N 29°51' W 092°21'17 7.5
2017-Nov-15 09:10N 29°56' W 092°40'26 8.1
2017-Nov-15 05:57N 29°56' W 093°10'3 7.8
2017-Nov-15 05:30N 29°59' W 093°12'4 7.1
2017-Nov-15 05:00N 30°02' W 093°15'4 7.2
2017-Nov-15 04:30N 30°05' W 093°17'2 3.2
2017-Nov-15 04:01N 30°06' W 093°18'3 6.7
2017-Nov-15 03:30N 30°04' W 093°21'4 8.3
2017-Nov-15 03:00N 30°04' W 093°26'4 8.7
2017-Nov-15 02:30N 30°04' W 093°31'4 8.6
2017-Nov-15 02:00N 30°04' W 093°36'4 7.9
2017-Nov-15 01:30N 30°03' W 093°41'  
Track history (hours):
 
Tides and Currents Weather Stations Pressure Air Temp Water Temp Dewpoint Dewpoint Depression Visibility Wind Speed Wind Dir Waves Ship Positions

Charles J Cenac

Owner: BC Towing, Inc., Houma, LA. More information available from US FCC via Universal Licensing System and Coast Guard Vessel Documentation Center.

Last reported at 2017-Nov-23 13:04 UTC. Time now 2017-Nov-24 16:20 UTC.
Position N 29°55' W 093°20'.

Length 20 m; draft 8 m.

Type: Towing. MMSI: 366997390.

Date/timePositionNaut miles runAvg speedWind from/ knotsBaromVisibWave heightAir tempDewpointWater temp
2017-Nov-23 13:04N 29°55' W 093°20'0 4.1
2017-Nov-23 12:59N 29°55' W 093°20'2 4.0
2017-Nov-23 12:30N 29°57' W 093°20'2 3.9
2017-Nov-23 12:00N 29°59' W 093°20'2 3.6
2017-Nov-23 11:30N 30°01' W 093°20'2 3.6
2017-Nov-23 11:00N 30°03' W 093°20'2 3.9
2017-Nov-23 10:30N 30°05' W 093°20'1 1.8
2017-Nov-23 10:00N 30°04' W 093°20'1 2.1
2017-Nov-23 09:30N 30°04' W 093°21'1 3.0
2017-Nov-23 09:00N 30°04' W 093°23'2 4.0
2017-Nov-23 08:30N 30°04' W 093°25'2 4.0
2017-Nov-23 08:00N 30°04' W 093°28'2 3.9
2017-Nov-23 07:30N 30°04' W 093°30'2 3.9
2017-Nov-23 07:00N 30°04' W 093°32'2 3.9
2017-Nov-23 06:30N 30°04' W 093°34'2 3.8
2017-Nov-23 06:00N 30°03' W 093°37'2 4.0
2017-Nov-23 05:30N 30°04' W 093°39'2 4.2
2017-Nov-23 05:00N 30°04' W 093°41'  
2017-Nov-17 14:01N 29°49' W 092°02'0 6.2
2017-Nov-17 13:59N 29°49' W 092°02'3 5.9
2017-Nov-17 13:27N 29°48' W 092°06'3 6.1
2017-Nov-17 13:00N 29°47' W 092°09'3 5.8
2017-Nov-17 12:30N 29°47' W 092°12'1 2.0
2017-Nov-17 12:00N 29°47' W 092°13'1 1.1
2017-Nov-17 11:30N 29°48' W 092°14'1 1.8
2017-Nov-17 11:00N 29°48' W 092°15'3 5.0
2017-Nov-17 10:30N 29°49' W 092°17'2 4.7
2017-Nov-17 10:00N 29°50' W 092°19'4 5.1
2017-Nov-17 09:11N 29°53' W 092°23'41 5.3
2017-Nov-17 01:30N 29°57' W 093°10'3 5.7
2017-Nov-17 01:00N 29°59' W 093°12'3 5.4
2017-Nov-17 00:30N 30°01' W 093°14'3 5.1
2017-Nov-17 00:00N 30°03' W 093°16'3 5.5
2017-Nov-16 23:30N 30°05' W 093°18'1 2.8
2017-Nov-16 23:00N 30°06' W 093°18'1 2.4
2017-Nov-16 22:30N 30°06' W 093°17'1 2.6
2017-Nov-16 22:00N 30°05' W 093°18'0 0.7
2017-Nov-16 21:30N 30°05' W 093°17'1 2.9
2017-Nov-16 21:00N 30°04' W 093°16'3 6.7
2017-Nov-16 20:30N 30°01' W 093°14'4 7.7
2017-Nov-16 20:00N 29°58' W 093°11'43 7.7
2017-Nov-16 14:29N 29°52' W 092°23'4 7.6
2017-Nov-16 13:55N 29°50' W 092°18'3 7.8
2017-Nov-16 13:30N 29°48' W 092°15'3 5.4
2017-Nov-16 13:00N 29°47' W 092°12'0 0.0
2017-Nov-16 12:30N 29°47' W 092°12'0 0.0
2017-Nov-16 12:00N 29°47' W 092°12'1 1.9
2017-Nov-16 11:30N 29°47' W 092°11'4 7.0
2017-Nov-16 11:00N 29°47' W 092°07'4 7.3
2017-Nov-16 10:30N 29°49' W 092°04'6 7.8
2017-Nov-16 09:41N 29°51' W 091°56'1 5.8
2017-Nov-16 09:27N 29°51' W 091°55'7 0.4
2017-Nov-15 16:19N 29°49' W 092°02'3 8.4
2017-Nov-15 16:00N 29°48' W 092°05'4 8.4
2017-Nov-15 15:30N 29°47' W 092°10'1 2.7
2017-Nov-15 15:00N 29°47' W 092°11'1 2.0
2017-Nov-15 14:30N 29°47' W 092°12'1 2.0
2017-Nov-15 14:00N 29°48' W 092°13'0 0.0
2017-Nov-15 13:30N 29°48' W 092°13'0 0.0
2017-Nov-15 13:00N 29°48' W 092°13'0 0.0
2017-Nov-15 12:30N 29°48' W 092°13'3 6.0
2017-Nov-15 12:00N 29°49' W 092°16'4 8.1
2017-Nov-15 11:30N 29°51' W 092°21'17 7.5
2017-Nov-15 09:10N 29°56' W 092°40'26 8.1
2017-Nov-15 05:57N 29°56' W 093°10'3 7.8
2017-Nov-15 05:30N 29°59' W 093°12'4 7.1
2017-Nov-15 05:00N 30°02' W 093°15'4 7.2
2017-Nov-15 04:30N 30°05' W 093°17'2 3.2
2017-Nov-15 04:01N 30°06' W 093°18'3 6.7
2017-Nov-15 03:30N 30°04' W 093°21'4 8.3
2017-Nov-15 03:00N 30°04' W 093°26'4 8.7
2017-Nov-15 02:30N 30°04' W 093°31'4 8.6
2017-Nov-15 02:00N 30°04' W 093°36'4 7.9
2017-Nov-15 01:30N 30°03' W 093°41'  

Dump ship's entire track history